Pretoria, South Africa
Current Conditions -  °F | °C
As of 6:00 PM on Sunday 21 Dec 2014 (Local Time) from FALA Reporting Station
Few Clouds Few Clouds  
Wind Chill: 88°   Ceiling: Unl
Heat Index: 88°   Visibility: 6mi
Dew Point: 41°   Wind: 5mph
Humidity: 19%   Direction: 290°WNW
Pressure: 30"   Gusts: NA
Location:  25.73°S, 28.22°E
Report Text: FALA 211600Z 29004KT 260V320 9999 FEW048 31/05 Q1016 NOSIG
Loading
Personal Weather Stations






























Interactive Weather Map New forecast layout! Learn more

10-Day Weather Forecast

Advertisements
Track Severe Weather on mobile